Katharina — V2DQ5 — position and weather

sailwx.info

Track history (hours):
 
Tides and Currents Weather Stations Pressure Air Temp Water Temp Dewpoint Dewpoint Depression Visibility Wind Speed Wind Dir Waves Ship Positions

Katharina

Last reported at 2015-May-27 19:30 UTC. Time now 2015-May-30 14:36 UTC.
Position N 52°06' E 003°55'.

Length 146 m; draft 6.6 m.

Type: Ship. MMSI: 305305000.

Date/timePositionNaut miles runAvg speedWind from/ knotsBaromVisibWave heightAir tempDewpointWater temp
2015-May-27 19:30N 52°06' E 003°55'9 9.6
2015-May-27 18:34N 51°59' E 004°05'1111.3
2015-May-27 17:32N 51°54' E 004°21'2 1.0
2015-May-27 15:25N 51°53' E 004°25'0 0.0
2015-May-27 14:07N 51°53' E 004°25'0 0.0
2015-May-27 13:28N 51°53' E 004°25'0 0.0
2015-May-27 12:31N 51°53' E 004°25'0 0.0
2015-May-27 10:25N 51°53' E 004°25'0 0.0
2015-May-27 09:22N 51°53' E 004°25'0 0.0
2015-May-27 03:28N 51°53' E 004°25'0 0.0
2015-May-27 02:22N 51°53' E 004°25'0 0.0
2015-May-27 01:19N 51°53' E 004°25'0 0.0
2015-May-27 00:31N 51°53' E 004°25'0 0.0
2015-May-26 23:31N 51°53' E 004°25'0 0.0
2015-May-26 21:07N 51°53' E 004°25'0 0.0
2015-May-26 20:31N 51°53' E 004°25'0 0.0
2015-May-26 19:31N 51°53' E 004°25'0 0.0
2015-May-26 17:25N 51°53' E 004°25'0 0.0
2015-May-26 16:25N 51°53' E 004°25'0 0.0
2015-May-26 15:22N 51°53' E 004°25'0 0.0
2015-May-26 14:31N 51°53' E 004°25'0 0.0
2015-May-26 13:31N 51°53' E 004°25'0 0.0
2015-May-26 12:25N 51°53' E 004°25'0 0.0
2015-May-26 11:31N 51°53' E 004°25'0 0.0
2015-May-26 10:25N 51°53' E 004°25'0 0.0
2015-May-26 08:31N 51°53' E 004°25'0 0.0
2015-May-26 07:31N 51°53' E 004°25'0 0.0
2015-May-26 06:25N 51°53' E 004°25'0 0.0
2015-May-26 00:19N 51°53' E 004°25'0 0.0
2015-May-25 23:19N 51°53' E 004°25'0 0.0
2015-May-25 20:31N 51°53' E 004°25'0 0.0
2015-May-25 18:13N 51°53' E 004°25'0 0.0
2015-May-25 16:31N 51°53' E 004°25'0 0.0
2015-May-25 15:31N 51°53' E 004°25'0 0.0
2015-May-25 12:07N 51°53' E 004°25'0 0.0
2015-May-25 08:31N 51°53' E 004°25'0 0.0
2015-May-25 05:31N 51°53' E 004°25'0 0.0
2015-May-25 04:19N 51°53' E 004°25'0 0.0
2015-May-25 03:25N 51°53' E 004°25'0 0.0
2015-May-25 02:25N 51°53' E 004°25'0 0.0
2015-May-25 01:25N 51°53' E 004°25'0 0.0
2015-May-25 00:19N 51°53' E 004°25'0 0.0
2015-May-24 23:13N 51°53' E 004°25'0 0.0
2015-May-24 22:31N 51°53' E 004°25'0 0.0
2015-May-24 21:31N 51°53' E 004°25'0 0.0
2015-May-24 20:19N 51°53' E 004°25'0 0.2
2015-May-24 19:34N 51°53' E 004°25'7 6.6
2015-May-24 18:33N 51°55' E 004°14'1212.4
2015-May-24 17:33N 52°00' E 003°56'1410.7
2015-May-24 16:12N 52°06' E 003°34'8011.6
2015-May-24 09:18N 52°57' E 001°52'811.2
2015-May-24 08:33N 53°02' E 001°41'65 9.3
2015-May-24 01:33N 53°48' E 000°25'9 9.1
2015-May-24 00:33N 53°57' E 000°22'13 9.8
2015-May-23 23:14N 54°10' E 000°18'1010.4
2015-May-23 22:18N 54°19' E 000°12'810.7
2015-May-23 21:34N 54°27' E 000°08'1110.9
2015-May-23 20:33N 54°37' E 000°01'1310.8
2015-May-23 19:20N 54°49' W 000°07'16610.4
2015-May-23 03:29N 57°30' W 001°20'22410.7
2015-May-22 06:33N 61°00' W 003°53'10 9.8
2015-May-22 05:33N 61°09' W 004°02'1010.2
2015-May-22 04:33N 61°18' W 004°12'  
Track history (hours):
 
Tides and Currents Weather Stations Pressure Air Temp Water Temp Dewpoint Dewpoint Depression Visibility Wind Speed Wind Dir Waves Ship Positions

Katharina

Last reported at 2015-May-27 19:30 UTC. Time now 2015-May-30 14:36 UTC.
Position N 52°06' E 003°55'.

Length 146 m; draft 6.6 m.

Type: Ship. MMSI: 305305000.

Date/timePositionNaut miles runAvg speedWind from/ knotsBaromVisibWave heightAir tempDewpointWater temp
2015-May-27 19:30N 52°06' E 003°55'9 9.6
2015-May-27 18:34N 51°59' E 004°05'1111.3
2015-May-27 17:32N 51°54' E 004°21'2 1.0
2015-May-27 15:25N 51°53' E 004°25'0 0.0
2015-May-27 14:07N 51°53' E 004°25'0 0.0
2015-May-27 13:28N 51°53' E 004°25'0 0.0
2015-May-27 12:31N 51°53' E 004°25'0 0.0
2015-May-27 10:25N 51°53' E 004°25'0 0.0
2015-May-27 09:22N 51°53' E 004°25'0 0.0
2015-May-27 03:28N 51°53' E 004°25'0 0.0
2015-May-27 02:22N 51°53' E 004°25'0 0.0
2015-May-27 01:19N 51°53' E 004°25'0 0.0
2015-May-27 00:31N 51°53' E 004°25'0 0.0
2015-May-26 23:31N 51°53' E 004°25'0 0.0
2015-May-26 21:07N 51°53' E 004°25'0 0.0
2015-May-26 20:31N 51°53' E 004°25'0 0.0
2015-May-26 19:31N 51°53' E 004°25'0 0.0
2015-May-26 17:25N 51°53' E 004°25'0 0.0
2015-May-26 16:25N 51°53' E 004°25'0 0.0
2015-May-26 15:22N 51°53' E 004°25'0 0.0
2015-May-26 14:31N 51°53' E 004°25'0 0.0
2015-May-26 13:31N 51°53' E 004°25'0 0.0
2015-May-26 12:25N 51°53' E 004°25'0 0.0
2015-May-26 11:31N 51°53' E 004°25'0 0.0
2015-May-26 10:25N 51°53' E 004°25'0 0.0
2015-May-26 08:31N 51°53' E 004°25'0 0.0
2015-May-26 07:31N 51°53' E 004°25'0 0.0
2015-May-26 06:25N 51°53' E 004°25'0 0.0
2015-May-26 00:19N 51°53' E 004°25'0 0.0
2015-May-25 23:19N 51°53' E 004°25'0 0.0
2015-May-25 20:31N 51°53' E 004°25'0 0.0
2015-May-25 18:13N 51°53' E 004°25'0 0.0
2015-May-25 16:31N 51°53' E 004°25'0 0.0
2015-May-25 15:31N 51°53' E 004°25'0 0.0
2015-May-25 12:07N 51°53' E 004°25'0 0.0
2015-May-25 08:31N 51°53' E 004°25'0 0.0
2015-May-25 05:31N 51°53' E 004°25'0 0.0
2015-May-25 04:19N 51°53' E 004°25'0 0.0
2015-May-25 03:25N 51°53' E 004°25'0 0.0
2015-May-25 02:25N 51°53' E 004°25'0 0.0
2015-May-25 01:25N 51°53' E 004°25'0 0.0
2015-May-25 00:19N 51°53' E 004°25'0 0.0
2015-May-24 23:13N 51°53' E 004°25'0 0.0
2015-May-24 22:31N 51°53' E 004°25'0 0.0
2015-May-24 21:31N 51°53' E 004°25'0 0.0
2015-May-24 20:19N 51°53' E 004°25'0 0.2
2015-May-24 19:34N 51°53' E 004°25'7 6.6
2015-May-24 18:33N 51°55' E 004°14'1212.4
2015-May-24 17:33N 52°00' E 003°56'1410.7
2015-May-24 16:12N 52°06' E 003°34'8011.6
2015-May-24 09:18N 52°57' E 001°52'811.2
2015-May-24 08:33N 53°02' E 001°41'65 9.3
2015-May-24 01:33N 53°48' E 000°25'9 9.1
2015-May-24 00:33N 53°57' E 000°22'13 9.8
2015-May-23 23:14N 54°10' E 000°18'1010.4
2015-May-23 22:18N 54°19' E 000°12'810.7
2015-May-23 21:34N 54°27' E 000°08'1110.9
2015-May-23 20:33N 54°37' E 000°01'1310.8
2015-May-23 19:20N 54°49' W 000°07'16610.4
2015-May-23 03:29N 57°30' W 001°20'22410.7
2015-May-22 06:33N 61°00' W 003°53'10 9.8
2015-May-22 05:33N 61°09' W 004°02'1010.2
2015-May-22 04:33N 61°18' W 004°12'  

Dump ship's entire track history